Αρχική σελίδα
METAR-TAF:

METAR-TAF

Αεροδρόμια :

Αβάνα, Κούβα

γεωγραφικό πλάτος: 22-59N, γεωγραφικό μήκος: 082-24W, υψόμετρο: 59 μ

Παρών καιρός

Η αναφορά έγινε 25 λεπτά πριν, στις 04:55 UTC
Άνεμος 7 kt από Β
Θερμοκρασία 22°C
Υγρασία 69%
Πίεση 1021 hPa
Ορατότητα: 9000 μ
Διάσπαρτα νέφη σε ύψος 3000 πόδια

METAR: MUHA 110455Z 35007KT 9000 SCT030 22/16 Q1021

Χρόνος: 00:20 (05:20 UTC)

Πρόγνωση Καιρού

Η αναφορά έγινε 6 ώρες και 20 λεπτά πριν, στις 23:00 UTC
Η πρόγνωση ισχύει από τις 11 στις 00 UTC έως τις 11 στις 24 UTC
Άνεμος 8 kt από Β
Ορατότητα: 9000 μ
Αρκετά νέφη σε ύψος 2500 πόδια

TAF: MUHA 102300Z 1100/1124 01008KT 9000 BKN025

Μετεωρολογικές αναφορές και προγνώσεις για περισσότερα από 4000 αεροδρόμια (δελτία METAR και TAF).

Οι διαθέσιμοι σταθμοί απεικονίζονται στο χάρτη με κίτρινες και κόκκινες κουκκίδες.

Μετακινήστε το ποντίκι πάνω από τις κουκκίδες για να δείτε το όνομα του σταθμού.

Στη συνέχεια, κάντε κλικ για να δείτε τις μετεωρολογικές αναφορές και τις προγνώσεις καιρού.

Για να αλλάξετε το χάρτη: κάντε κλικ στα πράσινα κουμπιά με τον μαύρο σταυρό για να ζουμάρετε, στο πράσινο κουμπί με την παύλα για να αφαιρέσετε το ζουμ ή στα πράσινα βέλη για να αντιπαραβάλλετε χάρτες.


METAR-TAF: